createdAt,value
2017-11-08T22:16:31.338Z,47.8
2017-11-08T22:17:31.993Z,51.6
2017-11-08T22:18:32.641Z,56.0
2017-11-08T22:19:33.295Z,61.2
2017-11-08T22:20:33.980Z,66.0
2017-11-08T22:21:34.634Z,70.2
2017-11-08T22:22:35.287Z,73.5
2017-11-08T22:23:35.941Z,76.9
2017-11-08T22:24:36.594Z,78.6
2017-11-08T22:25:37.250Z,81.2
2017-11-08T22:26:37.902Z,83.3
2017-11-08T22:27:38.558Z,84.9
2017-11-08T22:28:39.215Z,86.1
2017-11-08T22:29:39.868Z,86.8
2017-11-08T22:30:40.522Z,88.0
2017-11-08T22:31:41.177Z,89.1
2017-11-08T22:32:41.832Z,89.7
2017-11-08T22:33:42.491Z,90.5
2017-11-08T22:34:43.136Z,91.0
2017-11-08T22:35:43.789Z,91.6
2017-11-08T22:36:44.442Z,91.8
2017-11-08T22:37:45.096Z,92.5
2017-11-08T22:38:45.782Z,92.4
2017-11-08T22:39:46.441Z,93.2
2017-11-08T22:40:47.123Z,92.9
2017-11-08T22:41:47.776Z,93.4
2017-11-08T22:42:48.428Z,94.1
2017-11-08T22:43:49.080Z,94.5
2017-11-08T22:44:49.730Z,94.5
2017-11-08T22:45:50.382Z,94.5
2017-11-08T22:46:51.070Z,94.8
2017-11-08T22:47:51.723Z,94.8
2017-11-08T22:48:52.375Z,94.7
2017-11-08T22:49:53.028Z,94.7
2017-11-08T22:50:53.679Z,95.3
2017-11-08T22:51:54.330Z,95.2
2017-11-08T22:52:55.018Z,95.5
2017-11-08T22:53:55.671Z,95.4
2017-11-08T22:54:56.323Z,96.0
2017-11-08T22:55:56.975Z,95.8
2017-11-08T22:56:57.627Z,95.9
2017-11-08T22:57:58.280Z,96.1
2017-11-08T22:58:58.932Z,95.7
2017-11-08T22:59:59.587Z,96.0
2017-11-08T23:01:00.273Z,96.0
2017-11-08T23:02:00.924Z,96.4
2017-11-08T23:03:01.611Z,96.6
2017-11-08T23:04:02.263Z,96.6
2017-11-08T23:05:02.914Z,96.5
2017-11-08T23:06:03.564Z,96.4
2017-11-08T23:07:04.218Z,96.5
2017-11-08T23:08:04.868Z,96.3
2017-11-08T23:09:05.557Z,96.4
2017-11-08T23:10:06.211Z,96.2
2017-11-08T23:11:06.863Z,96.7
2017-11-08T23:12:07.516Z,97.3
2017-11-08T23:13:08.168Z,97.0
2017-11-08T23:14:08.820Z,97.3
2017-11-08T23:15:09.472Z,97.0
2017-11-08T23:16:10.122Z,97.0
2017-11-08T23:17:10.776Z,97.0
2017-11-08T23:18:11.428Z,97.2
2017-11-08T23:19:12.080Z,97.3
2017-11-08T23:20:12.732Z,96.9
2017-11-08T23:21:13.384Z,96.8
2017-11-08T23:22:14.035Z,96.8
2017-11-08T23:23:14.688Z,97.4
2017-11-08T23:24:15.340Z,96.9
2017-11-08T23:25:16.030Z,97.0
2017-11-08T23:26:16.678Z,97.1
2017-11-08T23:27:17.332Z,96.6
2017-11-08T23:28:17.982Z,97.1
2017-11-08T23:29:18.634Z,97.0
2017-11-08T23:30:19.287Z,97.0
2017-11-08T23:31:19.939Z,97.0
2017-11-08T23:32:20.593Z,97.2
2017-11-08T23:33:21.242Z,97.0
2017-11-08T23:34:21.895Z,97.0
2017-11-08T23:35:22.546Z,96.5
2017-11-08T23:36:23.197Z,97.0
2017-11-08T23:37:23.850Z,96.9
2017-11-08T23:38:24.501Z,97.0
2017-11-08T23:39:25.151Z,97.4
2017-11-08T23:40:25.803Z,97.8
2017-11-08T23:41:26.490Z,97.4
2017-11-08T23:42:27.141Z,96.9
2017-11-08T23:43:27.795Z,97.3
2017-11-08T23:44:28.481Z,97.0
2017-11-08T23:45:29.098Z,97.4
2017-11-08T23:46:29.749Z,96.9
2017-11-08T23:47:30.407Z,97.1
2017-11-08T23:48:31.052Z,97.9
2017-11-08T23:49:31.706Z,97.9
2017-11-08T23:50:32.358Z,97.9
2017-11-08T23:51:33.017Z,97.7
2017-11-08T23:52:33.668Z,97.6
2017-11-08T23:53:34.312Z,97.7
2017-11-08T23:54:34.964Z,97.6
2017-11-08T23:55:35.615Z,98.0
2017-11-08T23:56:36.271Z,97.7
2017-11-08T23:57:36.918Z,97.4
2017-11-08T23:58:37.569Z,98.2
2017-11-08T23:59:38.221Z,98.1
